Time;durP1;ratioP1;P1;durP2;ratioP2;P2;SDS_P1;SDS_P2;PMS_P1;PMS_P2;Temp;Humidity;BMP_temperature;BMP_pressure;BME280_temperature;BME280_humidity;BME280_pressure;Samples;Min_cycle;Max_cycle;Signal;HPM_P1;HPM_P2
2024/02/05 00:02:00;;;;;;;0.68;0.68;;;;;;;12.52;67.86;102114.22;5066181;28;20043;-81
2024/02/05 00:04:27;;;;;;;0.28;0.28;;;;;;;12.44;67.82;102111.63;5070364;28;20446;-81
2024/02/05 00:06:53;;;;;;;0.20;0.20;;;;;;;12.38;67.91;102118.78;5078589;28;20025;-80
2024/02/05 00:09:19;;;;;;;0.20;0.20;;;;;;;12.44;67.91;102101.00;5074118;28;20025;-81
2024/02/05 00:11:46;;;;;;;0.20;0.20;;;;;;;12.37;67.88;102111.69;5079062;28;20031;-81
2024/02/05 00:14:12;;;;;;;0.10;0.10;;;;;;;12.32;68.68;102105.53;5079557;28;20583;-80
2024/02/05 00:16:38;;;;;;;0.10;0.10;;;;;;;12.32;68.00;102110.84;5073783;28;20044;-79
2024/02/05 00:19:05;;;;;;;0.10;0.10;;;;;;;12.20;68.45;102122.44;5073052;28;20090;-81
2024/02/05 00:21:31;;;;;;;0.10;0.10;;;;;;;12.41;68.05;102103.69;5073964;28;20115;-81
2024/02/05 00:23:58;;;;;;;1.75;1.05;;;;;;;12.29;68.19;102104.66;5068530;28;20050;-79
2024/02/05 00:26:24;;;;;;;0.75;0.75;;;;;;;12.25;68.26;102105.59;5073564;28;20021;-80
2024/02/05 00:28:50;;;;;;;0.10;0.10;;;;;;;12.28;67.91;102156.03;5073778;28;20508;-80
2024/02/05 00:31:16;;;;;;;13.00;1.67;;;;;;;12.25;68.48;102117.97;5072793;28;20140;-81
2024/02/05 00:33:42;;;;;;;0.10;0.10;;;;;;;12.23;68.52;102106.50;5074090;28;20032;-81
2024/02/05 00:36:09;;;;;;;2.13;1.33;;;;;;;12.37;67.74;102106.38;5069461;28;20387;-81
2024/02/05 00:38:35;;;;;;;0.10;0.10;;;;;;;12.26;67.85;102122.41;5073055;28;20600;-81
2024/02/05 00:41:01;;;;;;;1.42;1.33;;;;;;;12.26;68.38;102133.03;5070039;28;20035;-81
2024/02/05 00:43:27;;;;;;;0.20;0.20;;;;;;;12.24;68.21;102134.84;5072397;28;20066;-81
2024/02/05 00:45:53;;;;;;;0.15;0.15;;;;;;;12.33;68.27;102123.25;5073128;28;20396;-81
2024/02/05 00:48:20;;;;;;;0.10;0.10;;;;;;;12.22;68.43;102126.84;5072294;28;20115;-81
2024/02/05 00:50:46;;;;;;;0.10;0.10;;;;;;;12.18;68.03;102114.47;5074133;28;20109;-81
2024/02/05 00:53:12;;;;;;;0.73;0.73;;;;;;;12.18;68.22;102124.25;5075105;28;20036;-81
2024/02/05 00:55:39;;;;;;;0.20;0.20;;;;;;;12.21;68.08;102117.13;5068907;28;20087;-81
2024/02/05 00:58:05;;;;;;;0.10;0.10;;;;;;;12.11;68.23;102128.69;5066995;28;20056;-81
2024/02/05 01:00:31;;;;;;;0.20;0.20;;;;;;;12.04;68.57;102117.22;5072095;28;20079;-81
2024/02/05 01:02:58;;;;;;;0.13;0.13;;;;;;;12.13;68.37;102095.03;5072150;28;20029;-81
2024/02/05 01:05:24;;;;;;;0.43;0.43;;;;;;;12.11;68.57;102107.44;5072275;28;20033;-81
2024/02/05 01:07:50;;;;;;;0.10;0.10;;;;;;;12.04;68.62;102105.72;5073323;28;20032;-81
2024/02/05 01:10:17;;;;;;;1.27;1.27;;;;;;;11.87;69.67;102119.94;5070666;28;20119;-81
2024/02/05 01:12:43;;;;;;;1.85;1.75;;;;;;;11.87;69.57;102122.59;5072343;28;20047;-80
2024/02/05 01:15:10;;;;;;;2.15;1.38;;;;;;;11.90;69.34;102103.09;5073635;28;20553;-81
2024/02/05 01:17:36;;;;;;;0.10;0.10;;;;;;;11.84;69.91;102130.59;5071545;28;20024;-81
2024/02/05 01:20:10;;;;;;;0.10;0.10;;;;;;;11.91;69.53;102113.72;5075366;28;20105;-81
2024/02/05 01:22:38;;;;;;;1.55;1.45;;;;;;;11.95;69.61;102114.56;5073889;28;20032;-81
2024/02/05 01:25:04;;;;;;;0.30;0.30;;;;;;;11.93;69.66;102129.66;5070550;28;20082;-80
2024/02/05 01:27:31;;;;;;;0.10;0.10;;;;;;;12.02;68.77;102102.19;5069864;28;20130;-79
2024/02/05 01:29:57;;;;;;;0.10;0.10;;;;;;;12.05;68.39;102108.38;5069862;28;20052;-80
2024/02/05 01:32:23;;;;;;;0.20;0.20;;;;;;;11.93;68.96;102109.28;5074151;28;20456;-81
2024/02/05 01:34:50;;;;;;;0.63;0.60;;;;;;;11.90;68.63;102122.59;5069883;28;20490;-81
2024/02/05 01:37:16;;;;;;;1.85;1.75;;;;;;;12.02;69.32;102104.84;5072152;28;20033;-80
2024/02/05 01:39:42;;;;;;;0.52;0.52;;;;;;;11.88;69.23;102123.47;5071837;28;20029;-80
2024/02/05 01:42:08;;;;;;;3.33;3.13;;;;;;;11.90;69.27;102109.31;5075140;28;20108;-81
2024/02/05 01:44:35;;;;;;;0.55;0.55;;;;;;;11.94;68.98;102107.53;5069061;28;20025;-81
2024/02/05 01:47:01;;;;;;;1.90;1.80;;;;;;;11.98;68.58;102111.94;5070450;28;20491;-81
2024/02/05 01:49:27;;;;;;;0.50;0.50;;;;;;;12.02;68.41;102102.19;5075471;28;20031;-80
2024/02/05 01:51:56;;;;;;;0.20;0.20;;;;;;;11.91;68.99;102102.22;5074353;28;20048;-81
2024/02/05 01:54:24;;;;;;;1.35;0.90;;;;;;;11.88;69.22;102111.06;5073985;28;20502;-81
2024/02/05 01:56:54;;;;;;;1.95;1.85;;;;;;;11.85;69.69;102102.25;5066356;28;20028;-81
2024/02/05 01:59:21;;;;;;;1.55;1.45;;;;;;;11.73;69.27;102097.88;5067663;28;20020;-82
2024/02/05 02:01:48;;;;;;;0.10;0.10;;;;;;;11.75;69.81;102098.75;5072947;28;20084;-81
2024/02/05 02:04:14;;;;;;;0.10;0.10;;;;;;;11.74;69.64;102089.91;5072264;28;20036;-82
2024/02/05 02:06:41;;;;;;;0.10;0.10;;;;;;;11.73;69.46;102089.91;5077235;28;20028;-80
2024/02/05 02:09:10;;;;;;;1.02;1.02;;;;;;;11.73;69.54;102095.22;5074978;28;20538;-81
2024/02/05 02:11:41;;;;;;;0.47;0.47;;;;;;;11.75;69.92;102085.47;5080383;28;20023;-81
2024/02/05 02:14:08;;;;;;;2.08;1.85;;;;;;;11.76;69.53;102095.19;5068381;28;20110;-81
2024/02/05 02:16:35;;;;;;;0.57;0.57;;;;;;;11.65;70.17;102088.19;5073466;28;20032;-81
2024/02/05 02:19:07;;;;;;;1.45;0.65;;;;;;;11.77;69.68;102086.34;5076157;28;20081;-81
2024/02/05 02:21:34;;;;;;;4.55;1.75;;;;;;;11.68;70.26;102092.59;5078388;28;20103;-81
2024/02/05 02:24:01;;;;;;;0.10;0.10;;;;;;;11.64;69.92;102091.72;5075477;28;20153;-81
2024/02/05 02:26:27;;;;;;;0.20;0.20;;;;;;;11.78;69.96;102082.81;5076750;28;20454;-81
2024/02/05 02:28:53;;;;;;;0.65;0.65;;;;;;;11.78;69.31;102082.81;5069704;28;20025;-80
2024/02/05 02:31:25;;;;;;;0.10;0.10;;;;;;;11.75;69.60;102089.03;5069357;28;20032;-80
2024/02/05 02:36:38;;;;;;;0.20;0.20;;;;;;;11.92;69.63;102086.25;5111434;27;20409;-80
2024/02/05 02:39:12;;;;;;;0.20;0.20;;;;;;;12.02;69.02;102076.50;5104561;28;20502;-79
2024/02/05 02:41:43;;;;;;;0.22;0.22;;;;;;;11.90;69.43;102071.22;5097398;28;20051;-79
2024/02/05 02:44:10;;;;;;;0.70;0.70;;;;;;;11.66;69.89;102081.09;5095001;28;20107;-80
2024/02/05 02:46:36;;;;;;;0.17;0.17;;;;;;;11.69;69.59;102094.38;5099020;28;20120;-80
2024/02/05 02:49:03;;;;;;;0.30;0.30;;;;;;;11.80;69.22;102065.06;5091671;28;20492;-79
2024/02/05 02:51:29;;;;;;;1.77;1.75;;;;;;;11.81;69.35;102078.38;5100911;28;20028;-80
2024/02/05 02:53:55;;;;;;;0.50;0.50;;;;;;;11.82;69.31;102068.63;5096102;28;20036;-80
2024/02/05 02:56:21;;;;;;;1.55;1.45;;;;;;;11.85;69.43;102081.91;5102613;28;20031;-79
2024/02/05 02:58:47;;;;;;;0.30;0.30;;;;;;;11.68;69.36;102083.75;5092124;27;20048;-80
2024/02/05 03:01:14;;;;;;;0.17;0.17;;;;;;;11.70;69.62;102084.59;5098869;28;20110;-80
2024/02/05 03:03:40;;;;;;;0.30;0.30;;;;;;;11.70;69.88;102085.50;5097363;28;20096;-80
2024/02/05 03:06:06;;;;;;;0.40;0.40;;;;;;;11.77;69.31;102078.38;5095881;28;20024;-79
2024/02/05 03:08:32;;;;;;;0.10;0.10;;;;;;;11.62;69.86;102087.31;5094834;28;20535;-80
2024/02/05 03:10:59;;;;;;;0.32;0.32;;;;;;;11.63;69.77;102071.38;5095170;28;20024;-80
2024/02/05 03:13:25;;;;;;;0.85;0.85;;;;;;;11.77;69.25;102062.44;5093496;28;20085;-81
2024/02/05 03:15:51;;;;;;;0.43;0.43;;;;;;;11.67;68.95;102064.28;5103778;28;20079;-80
2024/02/05 03:18:17;;;;;;;0.10;0.10;;;;;;;11.59;69.47;102069.63;5111913;28;20075;-80
2024/02/05 03:20:44;;;;;;;0.32;0.32;;;;;;;11.58;69.54;102053.72;5115071;28;20067;-81
2024/02/05 03:23:11;;;;;;;0.10;0.10;;;;;;;11.50;69.85;102061.69;5107058;28;20035;-80
2024/02/05 03:25:40;;;;;;;0.40;0.40;;;;;;;11.60;70.00;102066.09;5103517;28;20040;-80
2024/02/05 03:28:07;;;;;;;0.10;0.10;;;;;;;11.53;70.15;102063.47;5097695;28;20020;-81
2024/02/05 03:30:34;;;;;;;0.20;0.20;;;;;;;11.52;69.48;102059.91;5091507;28;20040;-81
2024/02/05 03:33:02;;;;;;;3.92;1.48;;;;;;;11.34;70.02;102079.47;5096829;28;20031;-80
2024/02/05 03:35:28;;;;;;;0.17;0.17;;;;;;;11.44;70.08;102067.91;5098713;27;20028;-80
2024/02/05 03:37:55;;;;;;;9.45;2.95;;;;;;;11.37;69.96;102054.69;5094815;28;20111;-80
2024/02/05 03:40:22;;;;;;;2.03;1.88;;;;;;;11.45;69.84;102059.06;5098003;28;20024;-80
2024/02/05 03:42:49;;;;;;;0.80;0.80;;;;;;;11.67;68.92;102056.31;5092039;28;20055;-80
2024/02/05 03:45:16;;;;;;;1.60;1.50;;;;;;;11.61;68.70;102061.66;5091888;28;20050;-80
2024/02/05 03:47:43;;;;;;;7.40;3.22;;;;;;;11.55;69.33;102059.91;5077917;28;20029;-81
2024/02/05 03:50:10;;;;;;;0.10;0.10;;;;;;;11.47;69.73;102072.31;5074745;28;20040;-79
2024/02/05 03:52:39;;;;;;;7.88;3.70;;;;;;;11.57;69.36;102058.13;5075591;28;20032;-79
2024/02/05 03:55:06;;;;;;;15.02;3.15;;;;;;;11.56;69.33;102056.34;5076601;28;20025;-78
2024/02/05 03:57:35;;;;;;;16.35;5.47;;;;;;;11.64;69.14;102065.16;5074220;28;20040;-79
2024/02/05 04:00:02;;;;;;;1.67;1.58;;;;;;;11.57;69.73;102062.56;5074387;28;20078;-79
2024/02/05 04:02:28;;;;;;;0.10;0.10;;;;;;;11.59;69.50;102072.28;5075537;28;20029;-79
2024/02/05 04:04:57;;;;;;;0.28;0.28;;;;;;;11.65;68.84;102052.75;5074867;28;20032;-79
2024/02/05 04:07:24;;;;;;;0.10;0.10;;;;;;;11.60;69.04;102066.09;5077916;28;20024;-79
2024/02/05 04:09:50;;;;;;;0.98;0.98;;;;;;;11.58;68.98;102059.88;5080692;28;20104;-81
2024/02/05 04:12:16;;;;;;;0.10;0.10;;;;;;;11.65;69.49;102060.72;5082572;28;20452;-80
2024/02/05 04:14:42;;;;;;;0.10;0.10;;;;;;;11.76;69.08;102058.03;5085789;28;20056;-80
2024/02/05 04:17:10;;;;;;;0.20;0.20;;;;;;;11.70;68.50;102058.06;5084437;28;20487;-79
2024/02/05 04:19:40;;;;;;;0.10;0.10;;;;;;;11.63;68.54;102070.50;5087594;28;20022;-79
2024/02/05 04:22:06;;;;;;;0.22;0.22;;;;;;;11.74;68.94;102081.03;5085771;28;20093;-80
2024/02/05 04:24:32;;;;;;;0.10;0.10;;;;;;;11.77;69.26;102075.72;5087491;28;20020;-80
2024/02/05 04:26:58;;;;;;;0.03;0.03;;;;;;;11.61;69.08;102073.16;5082664;28;20039;-79
2024/02/05 04:29:25;;;;;;;0.35;0.35;;;;;;;11.74;68.71;102078.38;5087290;28;20519;-80
2024/02/05 04:31:51;;;;;;;0.95;0.73;;;;;;;11.73;68.66;102068.69;5076582;28;20031;-80
2024/02/05 04:34:17;;;;;;;0.10;0.10;;;;;;;11.85;68.77;102060.66;5083681;28;20530;-80
2024/02/05 04:36:44;;;;;;;4.05;1.52;;;;;;;11.70;68.60;102066.94;5083138;28;20399;-80
2024/02/05 04:39:10;;;;;;;4.45;1.17;;;;;;;11.68;68.96;102062.50;5084837;28;20029;-80
2024/02/05 04:41:36;;;;;;;0.10;0.10;;;;;;;11.75;68.10;102074.84;5083291;28;20034;-80
2024/02/05 04:44:03;;;;;;;8.93;1.55;;;;;;;11.74;68.69;102075.72;5080376;28;20036;-81
2024/02/05 04:46:29;;;;;;;0.57;0.57;;;;;;;11.74;68.13;102054.50;5082508;28;20028;-80
2024/02/05 04:48:56;;;;;;;0.35;0.35;;;;;;;11.65;68.60;102058.97;5085799;28;20028;-80
2024/02/05 04:51:22;;;;;;;0.10;0.10;;;;;;;11.76;68.01;102060.69;5086126;28;20032;-80
2024/02/05 04:53:48;;;;;;;0.13;0.13;;;;;;;11.87;67.95;102065.94;5083090;28;20082;-80
2024/02/05 04:56:14;;;;;;;0.20;0.20;;;;;;;11.72;67.96;102077.53;5084742;28;20103;-80
2024/02/05 04:58:40;;;;;;;0.65;0.65;;;;;;;11.73;68.28;102063.38;5083601;28;20033;-80
2024/02/05 05:01:06;;;;;;;2.20;2.10;;;;;;;11.78;67.50;102072.19;5079401;28;20063;-81
2024/02/05 05:03:34;;;;;;;0.10;0.10;;;;;;;11.74;67.41;102091.66;5080705;28;20032;-81
2024/02/05 05:06:01;;;;;;;0.20;0.20;;;;;;;11.78;67.75;102072.19;5080764;28;20096;-81
2024/02/05 05:08:27;;;;;;;0.57;0.57;;;;;;;11.86;67.87;102069.50;5080078;28;20124;-78
2024/02/05 05:10:53;;;;;;;0.43;0.43;;;;;;;11.86;67.65;102065.03;5080185;28;20028;-80
2024/02/05 05:13:20;;;;;;;0.82;0.80;;;;;;;11.78;67.04;102064.22;5081391;28;20085;-80
2024/02/05 05:15:47;;;;;;;0.10;0.10;;;;;;;11.65;67.80;102060.72;5077005;28;20056;-80
2024/02/05 05:18:13;;;;;;;0.10;0.10;;;;;;;11.76;67.77;102060.69;5077088;28;20102;-77
2024/02/05 05:20:40;;;;;;;1.17;1.17;;;;;;;11.72;67.75;102061.59;5078977;28;20158;-78
2024/02/05 05:23:07;;;;;;;0.45;0.45;;;;;;;11.59;68.07;102055.44;5077832;28;20483;-80
2024/02/05 05:25:33;;;;;;;0.82;0.82;;;;;;;11.76;67.53;102058.94;5082296;28;20013;-80
2024/02/05 05:27:59;;;;;;;2.60;2.40;;;;;;;11.64;67.69;102059.84;5081108;28;20036;-79
2024/02/05 05:30:26;;;;;;;0.10;0.10;;;;;;;11.73;67.46;102058.06;5085990;28;20429;-79
2024/02/05 05:32:52;;;;;;;0.20;0.20;;;;;;;11.77;67.16;102039.44;5081885;28;20044;-78
2024/02/05 05:35:19;;;;;;;0.10;0.10;;;;;;;11.65;67.35;102058.06;5081404;28;20024;-78
2024/02/05 05:37:45;;;;;;;0.30;0.30;;;;;;;11.65;67.55;102050.09;5080288;28;20062;-79
2024/02/05 05:40:11;;;;;;;0.20;0.20;;;;;;;11.55;68.22;102062.56;5084132;28;20082;-80
2024/02/05 05:42:38;;;;;;;0.10;0.10;;;;;;;11.65;67.16;102045.69;5080562;28;20105;-79
2024/02/05 05:45:06;;;;;;;0.93;0.93;;;;;;;11.58;68.33;102043.97;5078855;28;20037;-79
2024/02/05 05:47:33;;;;;;;0.10;0.10;;;;;;;11.48;68.01;102047.56;5075109;28;20398;-80
2024/02/05 05:49:59;;;;;;;0.10;0.10;;;;;;;11.58;68.03;102040.44;5083247;28;20028;-80
2024/02/05 05:52:27;;;;;;;0.20;0.20;;;;;;;11.52;68.16;102051.09;5078906;28;20111;-80
2024/02/05 05:54:54;;;;;;;0.10;0.10;;;;;;;11.56;68.20;102037.78;5080825;28;20043;-80
2024/02/05 05:57:20;;;;;;;2.58;2.47;;;;;;;11.54;67.88;102050.19;5085433;28;20066;-80
2024/02/05 05:59:46;;;;;;;0.38;0.38;;;;;;;11.59;68.08;102044.84;5081198;28;20028;-80
2024/02/05 06:02:12;;;;;;;0.10;0.10;;;;;;;11.57;67.60;102044.84;5076361;28;20021;-80
2024/02/05 06:04:39;;;;;;;0.88;0.88;;;;;;;11.55;67.24;102049.31;5083521;28;20031;-80
2024/02/05 06:07:08;;;;;;;0.30;0.30;;;;;;;11.66;67.28;102059.84;5079834;28;20518;-80
2024/02/05 06:09:35;;;;;;;0.10;0.10;;;;;;;11.48;67.71;102059.03;5082897;28;20067;-79
2024/02/05 06:12:02;;;;;;;0.10;0.10;;;;;;;11.54;67.81;102052.84;5079197;28;20045;-80
2024/02/05 06:14:29;;;;;;;4.22;3.70;;;;;;;11.57;67.61;102046.63;5072939;28;20036;-79
2024/02/05 06:16:55;;;;;;;0.20;0.20;;;;;;;11.66;67.55;102041.25;5076161;28;20380;-79
2024/02/05 06:19:21;;;;;;;0.10;0.10;;;;;;;11.68;67.25;102038.63;5077886;28;20036;-79
2024/02/05 06:21:48;;;;;;;0.45;0.45;;;;;;;11.62;67.13;102043.03;5077816;28;20033;-79
2024/02/05 06:24:15;;;;;;;0.25;0.25;;;;;;;11.52;67.59;102035.16;5077902;28;20032;-79
2024/02/05 06:26:42;;;;;;;2.08;1.90;;;;;;;11.56;67.53;102013.88;5079685;28;20036;-79
2024/02/05 06:29:08;;;;;;;0.10;0.10;;;;;;;11.51;67.52;102036.91;5077001;28;20033;-79
2024/02/05 06:31:34;;;;;;;1.10;0.88;;;;;;;11.42;68.21;102036.97;5077498;28;20028;-79
2024/02/05 06:34:01;;;;;;;0.82;0.82;;;;;;;11.36;68.50;102037.00;5078790;28;20591;-80
2024/02/05 06:36:27;;;;;;;1.13;1.08;;;;;;;11.45;67.88;102032.53;5080301;28;20036;-79
2024/02/05 06:38:53;;;;;;;0.05;0.05;;;;;;;11.43;67.97;102031.66;5076412;28;20064;-79
2024/02/05 06:41:19;;;;;;;1.02;1.02;;;;;;;11.41;68.29;102036.06;5079059;28;20031;-78
2024/02/05 06:43:46;;;;;;;1.08;1.02;;;;;;;11.40;67.66;102038.72;5075194;28;20044;-79
2024/02/05 06:46:13;;;;;;;0.20;0.20;;;;;;;11.49;67.29;102051.97;5077039;28;20024;-79
2024/02/05 06:48:40;;;;;;;3.25;3.00;;;;;;;11.44;67.90;102051.09;5076217;28;20499;-80
2024/02/05 06:51:06;;;;;;;0.30;0.30;;;;;;;11.33;68.27;102059.97;5077544;28;20036;-80
2024/02/05 06:53:32;;;;;;;2.75;2.40;;;;;;;11.25;67.74;102034.38;5076691;28;20036;-79
2024/02/05 06:55:59;;;;;;;3.78;1.98;;;;;;;11.26;68.00;102036.16;5077864;28;20105;-81
2024/02/05 06:58:25;;;;;;;0.10;0.10;;;;;;;11.36;67.83;102042.31;5078572;28;20032;-80
2024/02/05 07:00:51;;;;;;;1.58;1.48;;;;;;;11.30;68.36;102067.06;5079445;28;20107;-80
2024/02/05 07:03:19;;;;;;;0.38;0.38;;;;;;;11.34;67.74;102039.66;5078336;28;20060;-82
2024/02/05 07:05:46;;;;;;;0.20;0.20;;;;;;;11.36;68.09;102042.31;5077969;28;20055;-79
2024/02/05 07:08:12;;;;;;;0.10;0.10;;;;;;;11.43;67.43;102054.66;5081406;28;20033;-80
2024/02/05 07:10:38;;;;;;;0.95;0.95;;;;;;;11.47;67.41;102054.63;5079170;28;20032;-81
2024/02/05 07:13:04;;;;;;;0.20;0.20;;;;;;;11.44;67.82;102064.34;5079360;28;20028;-81
2024/02/05 07:15:34;;;;;;;0.10;0.10;;;;;;;11.45;67.53;102053.75;5074528;28;20039;-80
2024/02/05 07:18:00;;;;;;;0.50;0.50;;;;;;;11.31;68.18;102060.88;5074701;28;20039;-80
2024/02/05 07:20:26;;;;;;;17.80;1.20;;;;;;;11.37;67.88;102050.25;5078433;28;20050;-80
2024/02/05 07:22:54;;;;;;;0.47;0.47;;;;;;;11.61;67.28;102046.63;5077490;28;20031;-80
2024/02/05 07:25:20;;;;;;;0.43;0.43;;;;;;;11.56;66.83;102072.28;5077463;28;20039;-80
2024/02/05 07:27:47;;;;;;;0.10;0.10;;;;;;;11.43;67.29;102076.75;5075069;28;20487;-80
2024/02/05 07:30:13;;;;;;;0.15;0.15;;;;;;;11.45;67.53;102066.13;5075772;28;20043;-79
2024/02/05 07:32:40;;;;;;;0.10;0.10;;;;;;;11.48;67.72;102074.09;5070457;28;20029;-79
2024/02/05 07:35:06;;;;;;;0.70;0.60;;;;;;;11.38;68.34;102067.06;5074559;28;20078;-79
2024/02/05 07:37:34;;;;;;;0.20;0.20;;;;;;;11.37;67.64;102076.78;5080149;28;20035;-79
2024/02/05 07:40:03;;;;;;;1.88;1.20;;;;;;;11.43;67.79;102055.53;5079602;28;20032;-80
2024/02/05 07:42:30;;;;;;;0.10;0.10;;;;;;;11.42;68.14;102075.00;5077813;28;20032;-80
2024/02/05 07:44:56;;;;;;;1.77;1.65;;;;;;;11.32;68.33;102066.19;5082106;28;20032;-79
2024/02/05 07:47:22;;;;;;;3.22;2.92;;;;;;;11.42;67.47;102060.84;5082476;28;20037;-81
2024/02/05 07:49:48;;;;;;;0.90;0.70;;;;;;;11.49;67.15;102059.94;5084003;28;20028;-80
2024/02/05 07:52:15;;;;;;;1.60;1.50;;;;;;;11.38;67.67;102077.69;5082280;28;20036;-82
2024/02/05 07:54:42;;;;;;;1.27;1.27;;;;;;;11.39;67.80;102075.03;5083867;28;20054;-81
2024/02/05 07:57:08;;;;;;;30.00;1.38;;;;;;;11.33;68.07;102059.97;5085350;28;20086;-82
2024/02/05 07:59:35;;;;;;;0.57;0.57;;;;;;;11.44;67.45;102061.72;5082102;28;20036;-82
2024/02/05 08:02:01;;;;;;;0.10;0.10;;;;;;;11.55;67.25;102065.22;5075520;28;20021;-82
2024/02/05 08:04:29;;;;;;;0.10;0.10;;;;;;;11.46;67.66;102060.84;5082738;28;20032;-82
2024/02/05 08:06:59;;;;;;;2.67;2.42;;;;;;;11.45;68.11;102072.34;5084336;28;20048;-82
2024/02/05 08:09:26;;;;;;;1.20;1.10;;;;;;;11.42;68.43;102069.69;5084209;28;20115;-81
2024/02/05 08:11:52;;;;;;;5.38;1.58;;;;;;;11.45;67.81;102059.06;5075131;28;20032;-82
2024/02/05 08:14:18;;;;;;;0.10;0.10;;;;;;;11.39;67.96;102068.81;5082976;28;20027;-80
2024/02/05 08:16:44;;;;;;;25.08;0.98;;;;;;;11.32;68.03;102058.22;5077710;28;20067;-79
2024/02/05 08:19:10;;;;;;;1.20;1.20;;;;;;;11.35;68.30;102082.97;5078435;28;20028;-85
2024/02/05 08:21:37;;;;;;;0.63;0.63;;;;;;;11.37;67.86;102071.47;5081353;28;20036;-82
2024/02/05 08:24:04;;;;;;;0.32;0.32;;;;;;;11.37;68.12;102078.56;5078398;28;20034;-84
2024/02/05 08:26:31;;;;;;;12.32;3.00;;;;;;;11.43;67.79;102067.94;5080522;28;20047;-81
2024/02/05 08:28:57;;;;;;;6.05;1.48;;;;;;;11.43;67.98;102066.16;5073414;28;20582;-80
2024/02/05 08:31:23;;;;;;;0.47;0.47;;;;;;;11.21;68.08;102083.91;5080581;28;20504;-81
2024/02/05 08:33:50;;;;;;;0.25;0.25;;;;;;;11.35;67.89;102075.03;5079239;28;20549;-80
2024/02/05 08:36:17;;;;;;;0.80;0.57;;;;;;;11.43;67.22;102081.19;5082793;28;20025;-80
2024/02/05 08:38:43;;;;;;;0.10;0.10;;;;;;;11.35;67.57;102067.06;5074068;28;20040;-80
2024/02/05 08:41:10;;;;;;;0.65;0.65;;;;;;;11.44;67.71;102067.00;5077797;28;20040;-82
2024/02/05 08:43:37;;;;;;;2.90;2.38;;;;;;;11.27;68.54;102070.63;5082348;28;20486;-82
2024/02/05 08:46:04;;;;;;;0.43;0.43;;;;;;;11.30;67.62;102067.97;5079038;28;20170;-82
2024/02/05 08:48:31;;;;;;;1.10;0.90;;;;;;;11.31;68.24;102071.50;5080280;28;20028;-82
2024/02/05 08:50:57;;;;;;;0.90;0.90;;;;;;;11.42;67.54;102072.34;5080154;28;20114;-82
2024/02/05 08:53:23;;;;;;;0.22;0.22;;;;;;;11.18;68.33;102091.88;5081792;28;20058;-82
2024/02/05 08:55:49;;;;;;;0.10;0.10;;;;;;;11.23;67.58;102100.72;5078694;28;20082;-81
2024/02/05 08:58:16;;;;;;;0.20;0.20;;;;;;;11.33;67.47;102080.34;5076941;28;20029;-82
2024/02/05 09:00:42;;;;;;;0.30;0.30;;;;;;;11.31;67.61;102079.47;5076220;28;20395;-81
2024/02/05 09:03:08;;;;;;;0.55;0.52;;;;;;;11.34;67.29;102082.13;5080389;28;20081;-82
2024/02/05 09:05:34;;;;;;;0.10;0.10;;;;;;;11.29;67.23;102100.69;5080912;28;20089;-81
2024/02/05 09:08:01;;;;;;;5.05;2.72;;;;;;;11.25;67.40;102093.63;5078434;28;20036;-82
2024/02/05 09:10:27;;;;;;;2.30;2.00;;;;;;;11.39;66.72;102076.78;5077153;28;20032;-82
2024/02/05 09:12:53;;;;;;;0.10;0.10;;;;;;;11.31;67.03;102106.88;5079809;28;20024;-83
2024/02/05 09:15:19;;;;;;;8.15;1.45;;;;;;;11.31;67.12;102096.28;5080831;28;20058;-82
2024/02/05 09:17:45;;;;;;;1.58;1.48;;;;;;;11.37;66.76;102082.09;5074245;28;20115;-82
2024/02/05 09:20:11;;;;;;;0.13;0.13;;;;;;;11.12;67.12;102097.19;5078037;28;20033;-82
2024/02/05 09:22:37;;;;;;;0.32;0.32;;;;;;;11.29;67.11;102074.16;5076508;28;20028;-83
2024/02/05 09:25:04;;;;;;;0.10;0.10;;;;;;;11.17;66.70;102076.84;5076464;28;20032;-82
2024/02/05 09:27:30;;;;;;;0.20;0.20;;;;;;;11.30;66.56;102085.66;5078542;28;20103;-81
2024/02/05 09:29:56;;;;;;;0.20;0.20;;;;;;;11.28;66.66;102059.13;5077618;28;20501;-84
2024/02/05 09:32:22;;;;;;;1.85;1.75;;;;;;;11.19;66.61;102066.22;5075892;28;20037;-83
2024/02/05 09:34:48;;;;;;;13.65;3.28;;;;;;;11.22;66.70;102077.72;5075425;28;20020;-79
2024/02/05 09:37:14;;;;;;;1.05;1.05;;;;;;;11.29;66.73;102058.25;5078592;28;20028;-80
2024/02/05 09:39:41;;;;;;;0.95;0.95;;;;;;;11.51;66.05;102071.41;5079690;28;20237;-86
2024/02/05 09:42:12;;;;;;;0.10;0.10;;;;;;;11.55;65.75;102082.91;5076500;28;20403;-80
2024/02/05 09:44:39;;;;;;;1.65;1.55;;;;;;;11.50;65.87;102082.91;5080962;28;20020;-83
2024/02/05 09:47:08;;;;;;;2.83;1.77;;;;;;;11.41;66.13;102077.66;5086111;28;20009;-82
2024/02/05 09:49:36;;;;;;;0.30;0.30;;;;;;;11.46;65.88;102060.84;5089482;28;20048;-83
2024/02/05 09:52:03;;;;;;;0.38;0.38;;;;;;;11.38;66.18;102085.66;5078732;28;20028;-85
2024/02/05 09:54:29;;;;;;;0.15;0.15;;;;;;;11.46;65.98;102066.16;5076858;28;20059;-87
2024/02/05 09:56:56;;;;;;;0.20;0.20;;;;;;;11.39;66.24;102058.19;5080394;28;20040;-84
2024/02/05 09:59:22;;;;;;;0.52;0.52;;;;;;;11.41;66.22;102045.81;5074407;28;20123;-83
2024/02/05 10:01:49;;;;;;;5.30;1.02;;;;;;;11.46;66.09;102059.94;5076221;28;20463;-86
2024/02/05 10:04:19;;;;;;;3.80;1.42;;;;;;;11.60;65.96;102046.59;5076135;28;20085;-87
2024/02/05 10:06:48;;;;;;;0.30;0.30;;;;;;;11.45;66.27;102075.00;5077309;28;20050;-84
2024/02/05 10:09:15;;;;;;;0.15;0.15;;;;;;;11.65;66.28;102021.81;5085456;28;20032;-83
2024/02/05 10:11:50;;;;;;;2.45;1.20;;;;;;;11.68;65.82;102044.81;5082061;28;20051;-83
2024/02/05 10:14:17;;;;;;;0.30;0.30;;;;;;;11.73;65.83;102055.41;5080322;28;20563;-84
2024/02/05 10:16:45;;;;;;;0.30;0.30;;;;;;;11.58;65.84;102059.88;5076433;28;20021;-84
2024/02/05 10:19:11;;;;;;;0.10;0.10;;;;;;;11.71;65.14;102051.88;5078762;28;20025;-86
2024/02/05 10:21:38;;;;;;;0.20;0.20;;;;;;;11.62;65.71;102028.91;5079133;28;20063;-82
2024/02/05 10:24:05;;;;;;;9.23;4.40;;;;;;;11.45;66.25;102052.88;5076848;28;20078;-81
2024/02/05 10:26:31;;;;;;;0.65;0.63;;;;;;;11.58;65.22;102038.66;5077581;28;20020;-84
2024/02/05 10:29:12;;;;;;;0.43;0.43;;;;;;;11.74;65.14;102041.22;5079538;28;20039;-85
2024/02/05 10:34:24;;;;;;;0.60;0.60;;;;;;;11.82;64.90;102026.13;5065623;28;20756;-81
2024/02/05 10:36:51;;;;;;;3.38;3.08;;;;;;;11.79;65.38;102047.41;5054068;28;20033;-78
2024/02/05 10:39:20;;;;;;;2.15;1.50;;;;;;;11.67;65.60;102050.13;5052702;28;20430;-78
2024/02/05 10:41:47;;;;;;;0.10;0.10;;;;;;;11.59;65.24;102043.06;5056986;28;20041;-78
2024/02/05 10:44:13;;;;;;;0.10;0.10;;;;;;;11.71;64.75;102041.25;5054517;28;20045;-78
2024/02/05 10:46:39;;;;;;;4.28;2.60;;;;;;;11.70;65.01;102044.78;5055661;28;20048;-78
2024/02/05 10:49:06;;;;;;;2.20;1.73;;;;;;;11.78;64.93;102027.06;5053047;28;20033;-78
2024/02/05 10:51:35;;;;;;;0.45;0.45;;;;;;;11.78;64.95;102040.31;5054144;28;20119;-79
2024/02/05 10:54:04;;;;;;;1.95;1.85;;;;;;;11.78;64.75;102040.31;5051815;28;20029;-78
2024/02/05 10:56:32;;;;;;;0.95;0.88;;;;;;;11.93;64.93;102028.72;5052982;28;20032;-78
2024/02/05 10:58:59;;;;;;;0.38;0.38;;;;;;;11.81;64.97;102033.22;5055053;28;20181;-78
2024/02/05 11:01:32;;;;;;;0.60;0.60;;;;;;;11.89;64.69;102017.25;5050852;28;20033;-79
2024/02/05 11:04:03;;;;;;;0.65;0.65;;;;;;;11.83;64.77;102033.22;5052558;28;20557;-78
2024/02/05 11:06:36;;;;;;;0.38;0.38;;;;;;;12.11;64.27;102027.72;5052856;28;20056;-78
2024/02/05 11:09:05;;;;;;;0.30;0.30;;;;;;;12.17;63.96;102014.41;5045299;28;20143;-78
2024/02/05 11:11:32;;;;;;;1.55;1.33;;;;;;;12.13;64.40;101996.72;5046114;28;20032;-78
2024/02/05 11:14:05;;;;;;;0.60;0.60;;;;;;;12.04;63.96;102012.75;5050944;28;20052;-78
2024/02/05 11:16:32;;;;;;;;;;;;;;;12.33;63.30;101999.22;5051791;28;20033;-78
2024/02/05 11:19:01;;;;;;;0.40;0.40;;;;;;;12.20;63.50;102002.88;5054853;28;19917;-78
2024/02/05 11:21:32;;;;;;;11.50;4.03;;;;;;;12.25;63.12;101995.72;5042763;28;20032;-78
2024/02/05 11:23:59;;;;;;;0.10;0.10;;;;;;;12.25;63.98;101991.31;5046332;28;20139;-78
2024/02/05 11:26:26;;;;;;;0.10;0.10;;;;;;;12.30;63.66;101996.59;5044115;28;20123;-77
2024/02/05 11:28:53;;;;;;;0.35;0.35;;;;;;;12.40;63.50;101973.44;5041612;28;20071;-78